sensor_id;sensor_type;location;lat;lon;timestamp;P1;durP1;ratioP1;P2;durP2;ratioP2
79706;SDS011;69200;53.612;-2.416;2024-01-07T00:00:47;3.80;;;1.27;;
79706;SDS011;69200;53.612;-2.416;2024-01-07T00:03:12;6.30;;;2.03;;
79706;SDS011;69200;53.612;-2.416;2024-01-07T00:05:37;9.50;;;2.33;;
79706;SDS011;69200;53.612;-2.416;2024-01-07T00:08:03;4.77;;;1.27;;
79706;SDS011;69200;53.612;-2.416;2024-01-07T00:10:28;6.45;;;1.60;;
79706;SDS011;69200;53.612;-2.416;2024-01-07T00:12:53;4.27;;;1.70;;
79706;SDS011;69200;53.612;-2.416;2024-01-07T00:15:19;6.23;;;2.23;;
79706;SDS011;69200;53.612;-2.416;2024-01-07T00:17:44;12.73;;;1.90;;
79706;SDS011;69200;53.612;-2.416;2024-01-07T00:20:10;4.23;;;1.80;;
79706;SDS011;69200;53.612;-2.416;2024-01-07T00:22:35;4.95;;;1.88;;
79706;SDS011;69200;53.612;-2.416;2024-01-07T00:25:01;6.20;;;2.30;;
79706;SDS011;69200;53.612;-2.416;2024-01-07T00:27:26;6.03;;;2.08;;
79706;SDS011;69200;53.612;-2.416;2024-01-07T00:29:52;8.83;;;2.13;;
79706;SDS011;69200;53.612;-2.416;2024-01-07T00:32:17;7.23;;;2.57;;
79706;SDS011;69200;53.612;-2.416;2024-01-07T00:34:42;8.30;;;2.63;;
79706;SDS011;69200;53.612;-2.416;2024-01-07T00:37:07;7.73;;;3.10;;
79706;SDS011;69200;53.612;-2.416;2024-01-07T00:39:33;9.33;;;3.07;;
79706;SDS011;69200;53.612;-2.416;2024-01-07T00:41:58;6.27;;;2.67;;
79706;SDS011;69200;53.612;-2.416;2024-01-07T00:44:23;9.25;;;3.63;;
79706;SDS011;69200;53.612;-2.416;2024-01-07T00:46:49;13.47;;;3.93;;
79706;SDS011;69200;53.612;-2.416;2024-01-07T00:49:14;10.10;;;2.70;;
79706;SDS011;69200;53.612;-2.416;2024-01-07T00:51:39;8.27;;;3.10;;
79706;SDS011;69200;53.612;-2.416;2024-01-07T00:54:04;13.20;;;2.47;;
79706;SDS011;69200;53.612;-2.416;2024-01-07T00:56:29;5.47;;;2.10;;
79706;SDS011;69200;53.612;-2.416;2024-01-07T00:58:55;6.47;;;2.27;;
79706;SDS011;69200;53.612;-2.416;2024-01-07T01:01:20;8.23;;;2.60;;
79706;SDS011;69200;53.612;-2.416;2024-01-07T01:03:45;8.20;;;2.80;;
79706;SDS011;69200;53.612;-2.416;2024-01-07T01:06:11;15.15;;;3.30;;
79706;SDS011;69200;53.612;-2.416;2024-01-07T01:08:36;11.88;;;2.97;;
79706;SDS011;69200;53.612;-2.416;2024-01-07T01:11:02;11.93;;;3.40;;
79706;SDS011;69200;53.612;-2.416;2024-01-07T01:13:27;8.20;;;2.90;;
79706;SDS011;69200;53.612;-2.416;2024-01-07T01:15:52;5.82;;;2.72;;
79706;SDS011;69200;53.612;-2.416;2024-01-07T01:18:17;7.30;;;1.57;;
79706;SDS011;69200;53.612;-2.416;2024-01-07T01:20:43;7.93;;;1.33;;
79706;SDS011;69200;53.612;-2.416;2024-01-07T01:23:08;3.93;;;0.77;;
79706;SDS011;69200;53.612;-2.416;2024-01-07T01:25:33;3.50;;;0.97;;
79706;SDS011;69200;53.612;-2.416;2024-01-07T01:28:00;3.83;;;0.75;;
79706;SDS011;69200;53.612;-2.416;2024-01-07T01:30:25;8.47;;;1.43;;
79706;SDS011;69200;53.612;-2.416;2024-01-07T01:32:52;6.18;;;0.80;;
79706;SDS011;69200;53.612;-2.416;2024-01-07T01:35:17;7.33;;;1.37;;
79706;SDS011;69200;53.612;-2.416;2024-01-07T01:37:43;2.03;;;0.57;;
79706;SDS011;69200;53.612;-2.416;2024-01-07T01:40:08;5.17;;;1.30;;
79706;SDS011;69200;53.612;-2.416;2024-01-07T01:42:33;2.53;;;0.80;;
79706;SDS011;69200;53.612;-2.416;2024-01-07T01:44:59;4.90;;;0.80;;
79706;SDS011;69200;53.612;-2.416;2024-01-07T01:47:26;4.00;;;0.98;;
79706;SDS011;69200;53.612;-2.416;2024-01-07T01:49:52;2.33;;;0.38;;
79706;SDS011;69200;53.612;-2.416;2024-01-07T01:52:17;1.43;;;0.67;;
79706;SDS011;69200;53.612;-2.416;2024-01-07T01:54:42;4.72;;;1.25;;
79706;SDS011;69200;53.612;-2.416;2024-01-07T01:57:09;3.17;;;0.90;;
79706;SDS011;69200;53.612;-2.416;2024-01-07T01:59:38;2.92;;;0.73;;
79706;SDS011;69200;53.612;-2.416;2024-01-07T02:02:04;2.67;;;0.73;;
79706;SDS011;69200;53.612;-2.416;2024-01-07T02:04:29;2.63;;;0.93;;
79706;SDS011;69200;53.612;-2.416;2024-01-07T02:06:54;5.57;;;1.20;;
79706;SDS011;69200;53.612;-2.416;2024-01-07T02:09:20;4.47;;;0.83;;
79706;SDS011;69200;53.612;-2.416;2024-01-07T02:11:59;1.10;;;0.50;;
79706;SDS011;69200;53.612;-2.416;2024-01-07T02:14:25;10.32;;;1.27;;
79706;SDS011;69200;53.612;-2.416;2024-01-07T02:16:50;4.57;;;0.70;;
79706;SDS011;69200;53.612;-2.416;2024-01-07T02:19:15;4.37;;;0.50;;
79706;SDS011;69200;53.612;-2.416;2024-01-07T02:21:41;0.93;;;0.20;;
79706;SDS011;69200;53.612;-2.416;2024-01-07T02:24:06;2.88;;;0.65;;
79706;SDS011;69200;53.612;-2.416;2024-01-07T02:26:39;5.13;;;0.57;;
79706;SDS011;69200;53.612;-2.416;2024-01-07T02:29:05;3.27;;;0.50;;
79706;SDS011;69200;53.612;-2.416;2024-01-07T02:31:30;1.30;;;0.40;;
79706;SDS011;69200;53.612;-2.416;2024-01-07T02:33:55;4.30;;;0.90;;
79706;SDS011;69200;53.612;-2.416;2024-01-07T02:36:20;1.17;;;0.30;;
79706;SDS011;69200;53.612;-2.416;2024-01-07T02:38:46;5.53;;;0.80;;
79706;SDS011;69200;53.612;-2.416;2024-01-07T02:41:11;2.73;;;0.80;;
79706;SDS011;69200;53.612;-2.416;2024-01-07T02:43:36;3.70;;;0.80;;
79706;SDS011;69200;53.612;-2.416;2024-01-07T02:46:01;2.30;;;0.77;;
79706;SDS011;69200;53.612;-2.416;2024-01-07T02:48:27;2.47;;;0.67;;
79706;SDS011;69200;53.612;-2.416;2024-01-07T02:50:52;5.50;;;1.10;;
79706;SDS011;69200;53.612;-2.416;2024-01-07T02:53:17;4.17;;;0.80;;
79706;SDS011;69200;53.612;-2.416;2024-01-07T02:55:42;2.47;;;0.87;;
79706;SDS011;69200;53.612;-2.416;2024-01-07T02:58:08;1.37;;;0.40;;
79706;SDS011;69200;53.612;-2.416;2024-01-07T03:00:33;2.73;;;0.63;;
79706;SDS011;69200;53.612;-2.416;2024-01-07T03:02:58;2.40;;;0.77;;
79706;SDS011;69200;53.612;-2.416;2024-01-07T03:05:23;2.20;;;0.60;;
79706;SDS011;69200;53.612;-2.416;2024-01-07T03:07:49;1.02;;;0.40;;
79706;SDS011;69200;53.612;-2.416;2024-01-07T03:10:14;4.47;;;1.03;;
79706;SDS011;69200;53.612;-2.416;2024-01-07T03:12:40;9.03;;;1.10;;
79706;SDS011;69200;53.612;-2.416;2024-01-07T03:15:05;3.05;;;0.98;;
79706;SDS011;69200;53.612;-2.416;2024-01-07T03:17:31;2.65;;;0.90;;
79706;SDS011;69200;53.612;-2.416;2024-01-07T03:19:56;4.33;;;1.20;;
79706;SDS011;69200;53.612;-2.416;2024-01-07T03:22:22;7.40;;;2.15;;
79706;SDS011;69200;53.612;-2.416;2024-01-07T03:24:48;2.38;;;0.95;;
79706;SDS011;69200;53.612;-2.416;2024-01-07T03:27:13;4.47;;;1.40;;
79706;SDS011;69200;53.612;-2.416;2024-01-07T03:29:39;3.70;;;1.27;;
79706;SDS011;69200;53.612;-2.416;2024-01-07T03:32:04;3.95;;;1.30;;
79706;SDS011;69200;53.612;-2.416;2024-01-07T03:34:30;3.40;;;1.23;;
79706;SDS011;69200;53.612;-2.416;2024-01-07T03:36:55;3.97;;;0.97;;
79706;SDS011;69200;53.612;-2.416;2024-01-07T03:39:20;4.10;;;1.40;;
79706;SDS011;69200;53.612;-2.416;2024-01-07T03:41:45;6.63;;;1.67;;
79706;SDS011;69200;53.612;-2.416;2024-01-07T03:44:11;8.37;;;2.80;;
79706;SDS011;69200;53.612;-2.416;2024-01-07T03:46:36;7.17;;;2.50;;
79706;SDS011;69200;53.612;-2.416;2024-01-07T03:49:01;5.50;;;1.80;;
79706;SDS011;69200;53.612;-2.416;2024-01-07T03:51:26;8.23;;;2.50;;
79706;SDS011;69200;53.612;-2.416;2024-01-07T03:53:52;4.10;;;1.33;;
79706;SDS011;69200;53.612;-2.416;2024-01-07T03:56:17;3.80;;;1.20;;
79706;SDS011;69200;53.612;-2.416;2024-01-07T03:58:42;3.60;;;1.10;;
79706;SDS011;69200;53.612;-2.416;2024-01-07T04:01:07;9.03;;;1.90;;
79706;SDS011;69200;53.612;-2.416;2024-01-07T04:03:33;5.80;;;1.50;;
79706;SDS011;69200;53.612;-2.416;2024-01-07T04:05:58;3.97;;;1.53;;
79706;SDS011;69200;53.612;-2.416;2024-01-07T04:08:23;6.43;;;1.57;;
79706;SDS011;69200;53.612;-2.416;2024-01-07T04:10:48;6.70;;;2.30;;
79706;SDS011;69200;53.612;-2.416;2024-01-07T04:13:14;6.10;;;1.90;;
79706;SDS011;69200;53.612;-2.416;2024-01-07T04:15:39;3.80;;;1.03;;
79706;SDS011;69200;53.612;-2.416;2024-01-07T04:18:04;9.23;;;1.73;;
79706;SDS011;69200;53.612;-2.416;2024-01-07T04:20:30;6.30;;;1.90;;
79706;SDS011;69200;53.612;-2.416;2024-01-07T04:22:55;6.82;;;1.48;;
79706;SDS011;69200;53.612;-2.416;2024-01-07T04:25:21;5.05;;;1.70;;
79706;SDS011;69200;53.612;-2.416;2024-01-07T04:27:46;4.87;;;1.30;;
79706;SDS011;69200;53.612;-2.416;2024-01-07T04:30:11;7.73;;;1.47;;
79706;SDS011;69200;53.612;-2.416;2024-01-07T04:32:36;6.35;;;1.65;;
79706;SDS011;69200;53.612;-2.416;2024-01-07T04:35:02;9.37;;;2.10;;
79706;SDS011;69200;53.612;-2.416;2024-01-07T04:37:27;6.38;;;1.85;;
79706;SDS011;69200;53.612;-2.416;2024-01-07T04:39:52;4.27;;;1.47;;
79706;SDS011;69200;53.612;-2.416;2024-01-07T04:42:18;6.00;;;1.93;;
79706;SDS011;69200;53.612;-2.416;2024-01-07T04:44:43;4.38;;;1.63;;
79706;SDS011;69200;53.612;-2.416;2024-01-07T04:49:52;6.35;;;1.85;;
79706;SDS011;69200;53.612;-2.416;2024-01-07T04:52:18;5.72;;;1.73;;
79706;SDS011;69200;53.612;-2.416;2024-01-07T04:54:43;4.23;;;1.13;;
79706;SDS011;69200;53.612;-2.416;2024-01-07T04:57:08;6.70;;;1.53;;
79706;SDS011;69200;53.612;-2.416;2024-01-07T04:59:34;4.13;;;1.13;;
79706;SDS011;69200;53.612;-2.416;2024-01-07T05:01:59;3.97;;;1.53;;
79706;SDS011;69200;53.612;-2.416;2024-01-07T05:04:24;5.70;;;1.77;;
79706;SDS011;69200;53.612;-2.416;2024-01-07T05:06:49;5.43;;;1.90;;
79706;SDS011;69200;53.612;-2.416;2024-01-07T05:09:15;5.10;;;2.17;;
79706;SDS011;69200;53.612;-2.416;2024-01-07T05:11:40;5.67;;;1.50;;
79706;SDS011;69200;53.612;-2.416;2024-01-07T05:14:05;6.67;;;1.30;;
79706;SDS011;69200;53.612;-2.416;2024-01-07T05:16:30;4.27;;;1.40;;
79706;SDS011;69200;53.612;-2.416;2024-01-07T05:18:56;4.33;;;1.47;;
79706;SDS011;69200;53.612;-2.416;2024-01-07T05:21:21;4.53;;;1.17;;
79706;SDS011;69200;53.612;-2.416;2024-01-07T05:23:46;5.83;;;1.80;;
79706;SDS011;69200;53.612;-2.416;2024-01-07T05:26:11;4.23;;;1.60;;
79706;SDS011;69200;53.612;-2.416;2024-01-07T05:28:37;3.73;;;1.07;;
79706;SDS011;69200;53.612;-2.416;2024-01-07T05:31:02;4.60;;;1.45;;
79706;SDS011;69200;53.612;-2.416;2024-01-07T05:33:27;4.40;;;1.40;;
79706;SDS011;69200;53.612;-2.416;2024-01-07T05:35:53;4.77;;;1.57;;
79706;SDS011;69200;53.612;-2.416;2024-01-07T05:38:18;4.73;;;1.30;;
79706;SDS011;69200;53.612;-2.416;2024-01-07T05:40:43;5.03;;;1.60;;
79706;SDS011;69200;53.612;-2.416;2024-01-07T05:43:08;3.87;;;1.50;;
79706;SDS011;69200;53.612;-2.416;2024-01-07T05:45:33;4.03;;;1.27;;
79706;SDS011;69200;53.612;-2.416;2024-01-07T05:47:59;4.77;;;1.73;;
79706;SDS011;69200;53.612;-2.416;2024-01-07T05:50:24;5.17;;;1.10;;
79706;SDS011;69200;53.612;-2.416;2024-01-07T05:52:49;5.00;;;1.20;;
79706;SDS011;69200;53.612;-2.416;2024-01-07T05:55:14;8.07;;;1.30;;
79706;SDS011;69200;53.612;-2.416;2024-01-07T05:57:40;2.87;;;1.00;;
79706;SDS011;69200;53.612;-2.416;2024-01-07T06:00:05;2.37;;;0.80;;
79706;SDS011;69200;53.612;-2.416;2024-01-07T06:02:30;2.70;;;0.80;;
79706;SDS011;69200;53.612;-2.416;2024-01-07T06:04:56;2.95;;;0.82;;
79706;SDS011;69200;53.612;-2.416;2024-01-07T06:07:21;5.20;;;0.93;;
79706;SDS011;69200;53.612;-2.416;2024-01-07T06:09:46;1.77;;;0.57;;
79706;SDS011;69200;53.612;-2.416;2024-01-07T06:12:12;5.10;;;0.68;;
79706;SDS011;69200;53.612;-2.416;2024-01-07T06:14:37;4.70;;;1.08;;
79706;SDS011;69200;53.612;-2.416;2024-01-07T06:17:03;1.50;;;0.47;;
79706;SDS011;69200;53.612;-2.416;2024-01-07T06:19:29;4.53;;;1.02;;
79706;SDS011;69200;53.612;-2.416;2024-01-07T06:21:54;3.05;;;0.73;;
79706;SDS011;69200;53.612;-2.416;2024-01-07T06:24:19;3.53;;;1.20;;
79706;SDS011;69200;53.612;-2.416;2024-01-07T06:26:45;4.60;;;1.20;;
79706;SDS011;69200;53.612;-2.416;2024-01-07T06:29:10;5.00;;;1.10;;
79706;SDS011;69200;53.612;-2.416;2024-01-07T06:31:35;3.77;;;1.20;;
79706;SDS011;69200;53.612;-2.416;2024-01-07T06:34:00;2.87;;;1.73;;
79706;SDS011;69200;53.612;-2.416;2024-01-07T06:36:26;3.47;;;1.07;;
79706;SDS011;69200;53.612;-2.416;2024-01-07T06:38:51;4.83;;;1.37;;
79706;SDS011;69200;53.612;-2.416;2024-01-07T06:41:16;4.10;;;1.47;;
79706;SDS011;69200;53.612;-2.416;2024-01-07T06:43:41;8.07;;;1.70;;
79706;SDS011;69200;53.612;-2.416;2024-01-07T06:46:07;5.23;;;1.87;;
79706;SDS011;69200;53.612;-2.416;2024-01-07T06:48:32;3.87;;;1.30;;
79706;SDS011;69200;53.612;-2.416;2024-01-07T06:50:57;4.17;;;1.50;;
79706;SDS011;69200;53.612;-2.416;2024-01-07T06:53:23;5.50;;;1.35;;
79706;SDS011;69200;53.612;-2.416;2024-01-07T06:55:48;9.73;;;1.50;;
79706;SDS011;69200;53.612;-2.416;2024-01-07T06:58:13;3.67;;;1.47;;
79706;SDS011;69200;53.612;-2.416;2024-01-07T07:00:38;5.40;;;1.20;;
79706;SDS011;69200;53.612;-2.416;2024-01-07T07:03:04;4.80;;;1.67;;
79706;SDS011;69200;53.612;-2.416;2024-01-07T07:05:30;7.95;;;1.45;;
79706;SDS011;69200;53.612;-2.416;2024-01-07T07:07:55;6.90;;;1.75;;
79706;SDS011;69200;53.612;-2.416;2024-01-07T07:10:20;5.77;;;1.80;;
79706;SDS011;69200;53.612;-2.416;2024-01-07T07:12:46;5.73;;;1.47;;
79706;SDS011;69200;53.612;-2.416;2024-01-07T07:15:11;4.60;;;1.43;;
79706;SDS011;69200;53.612;-2.416;2024-01-07T07:17:38;4.40;;;1.33;;
79706;SDS011;69200;53.612;-2.416;2024-01-07T07:20:03;3.72;;;1.70;;
79706;SDS011;69200;53.612;-2.416;2024-01-07T07:22:29;7.97;;;1.60;;
79706;SDS011;69200;53.612;-2.416;2024-01-07T07:24:54;3.27;;;1.07;;
79706;SDS011;69200;53.612;-2.416;2024-01-07T07:27:19;5.43;;;1.15;;
79706;SDS011;69200;53.612;-2.416;2024-01-07T07:29:44;5.10;;;1.33;;
79706;SDS011;69200;53.612;-2.416;2024-01-07T07:32:10;7.73;;;1.60;;
79706;SDS011;69200;53.612;-2.416;2024-01-07T07:34:35;5.80;;;1.38;;
79706;SDS011;69200;53.612;-2.416;2024-01-07T07:37:00;6.00;;;1.40;;
79706;SDS011;69200;53.612;-2.416;2024-01-07T07:39:25;4.10;;;1.03;;
79706;SDS011;69200;53.612;-2.416;2024-01-07T07:41:51;4.05;;;1.27;;
79706;SDS011;69200;53.612;-2.416;2024-01-07T07:44:16;4.87;;;1.10;;
79706;SDS011;69200;53.612;-2.416;2024-01-07T07:46:42;3.90;;;1.25;;
79706;SDS011;69200;53.612;-2.416;2024-01-07T07:49:08;6.93;;;1.60;;
79706;SDS011;69200;53.612;-2.416;2024-01-07T07:51:33;5.50;;;1.23;;
79706;SDS011;69200;53.612;-2.416;2024-01-07T07:53:58;6.00;;;1.40;;
79706;SDS011;69200;53.612;-2.416;2024-01-07T07:56:23;4.33;;;1.13;;
79706;SDS011;69200;53.612;-2.416;2024-01-07T07:58:49;6.10;;;1.20;;
79706;SDS011;69200;53.612;-2.416;2024-01-07T08:01:14;5.47;;;1.20;;
79706;SDS011;69200;53.612;-2.416;2024-01-07T08:03:39;5.67;;;1.70;;
79706;SDS011;69200;53.612;-2.416;2024-01-07T08:06:05;3.67;;;1.02;;
79706;SDS011;69200;53.612;-2.416;2024-01-07T08:08:30;5.80;;;1.10;;
79706;SDS011;69200;53.612;-2.416;2024-01-07T08:10:55;5.57;;;1.23;;
79706;SDS011;69200;53.612;-2.416;2024-01-07T08:13:20;4.37;;;1.60;;
79706;SDS011;69200;53.612;-2.416;2024-01-07T08:15:46;5.10;;;1.40;;
79706;SDS011;69200;53.612;-2.416;2024-01-07T08:18:11;4.33;;;1.33;;
79706;SDS011;69200;53.612;-2.416;2024-01-07T08:20:36;7.03;;;1.80;;
79706;SDS011;69200;53.612;-2.416;2024-01-07T08:23:01;4.90;;;1.50;;
79706;SDS011;69200;53.612;-2.416;2024-01-07T08:25:27;4.43;;;1.57;;
79706;SDS011;69200;53.612;-2.416;2024-01-07T08:27:52;3.90;;;1.20;;
79706;SDS011;69200;53.612;-2.416;2024-01-07T08:30:17;4.23;;;1.40;;
79706;SDS011;69200;53.612;-2.416;2024-01-07T08:32:42;4.90;;;1.90;;
79706;SDS011;69200;53.612;-2.416;2024-01-07T08:35:08;6.63;;;1.40;;
79706;SDS011;69200;53.612;-2.416;2024-01-07T08:37:34;4.28;;;1.52;;
79706;SDS011;69200;53.612;-2.416;2024-01-07T08:39:59;6.60;;;1.63;;
79706;SDS011;69200;53.612;-2.416;2024-01-07T08:42:24;5.03;;;1.37;;
79706;SDS011;69200;53.612;-2.416;2024-01-07T08:44:50;5.47;;;1.85;;
79706;SDS011;69200;53.612;-2.416;2024-01-07T08:47:15;7.57;;;1.73;;
79706;SDS011;69200;53.612;-2.416;2024-01-07T08:49:40;6.27;;;2.00;;
79706;SDS011;69200;53.612;-2.416;2024-01-07T08:52:05;6.30;;;1.90;;
79706;SDS011;69200;53.612;-2.416;2024-01-07T08:54:31;5.20;;;1.73;;
79706;SDS011;69200;53.612;-2.416;2024-01-07T08:56:56;6.97;;;1.87;;
79706;SDS011;69200;53.612;-2.416;2024-01-07T08:59:21;4.07;;;1.48;;
79706;SDS011;69200;53.612;-2.416;2024-01-07T09:01:46;6.13;;;2.30;;
79706;SDS011;69200;53.612;-2.416;2024-01-07T09:04:12;5.50;;;2.03;;
79706;SDS011;69200;53.612;-2.416;2024-01-07T09:06:37;5.43;;;2.20;;
79706;SDS011;69200;53.612;-2.416;2024-01-07T09:09:02;6.55;;;2.00;;
79706;SDS011;69200;53.612;-2.416;2024-01-07T09:11:31;6.20;;;2.10;;
79706;SDS011;69200;53.612;-2.416;2024-01-07T09:13:56;6.38;;;2.40;;
79706;SDS011;69200;53.612;-2.416;2024-01-07T09:16:21;4.90;;;2.17;;
79706;SDS011;69200;53.612;-2.416;2024-01-07T09:18:47;5.47;;;2.20;;
79706;SDS011;69200;53.612;-2.416;2024-01-07T09:21:12;5.00;;;1.80;;
79706;SDS011;69200;53.612;-2.416;2024-01-07T09:23:37;6.43;;;2.17;;
79706;SDS011;69200;53.612;-2.416;2024-01-07T09:26:03;6.87;;;2.10;;
79706;SDS011;69200;53.612;-2.416;2024-01-07T09:28:28;5.20;;;2.30;;
79706;SDS011;69200;53.612;-2.416;2024-01-07T09:30:53;5.77;;;2.03;;
79706;SDS011;69200;53.612;-2.416;2024-01-07T09:33:19;4.53;;;1.83;;
79706;SDS011;69200;53.612;-2.416;2024-01-07T09:35:44;5.25;;;2.10;;
79706;SDS011;69200;53.612;-2.416;2024-01-07T09:38:10;8.63;;;2.20;;
79706;SDS011;69200;53.612;-2.416;2024-01-07T09:40:35;6.40;;;2.13;;
79706;SDS011;69200;53.612;-2.416;2024-01-07T09:43:02;6.35;;;2.47;;
79706;SDS011;69200;53.612;-2.416;2024-01-07T09:45:28;6.38;;;2.83;;
79706;SDS011;69200;53.612;-2.416;2024-01-07T09:47:53;6.10;;;1.77;;
79706;SDS011;69200;53.612;-2.416;2024-01-07T09:50:19;8.57;;;2.80;;
79706;SDS011;69200;53.612;-2.416;2024-01-07T09:52:45;6.53;;;2.30;;
79706;SDS011;69200;53.612;-2.416;2024-01-07T09:55:12;6.82;;;2.47;;
79706;SDS011;69200;53.612;-2.416;2024-01-07T09:57:38;7.05;;;2.40;;
79706;SDS011;69200;53.612;-2.416;2024-01-07T10:00:06;8.13;;;2.33;;
79706;SDS011;69200;53.612;-2.416;2024-01-07T10:02:32;6.70;;;2.38;;
79706;SDS011;69200;53.612;-2.416;2024-01-07T10:04:58;5.95;;;1.95;;
79706;SDS011;69200;53.612;-2.416;2024-01-07T10:07:23;8.47;;;2.60;;
79706;SDS011;69200;53.612;-2.416;2024-01-07T10:09:50;7.75;;;2.30;;
79706;SDS011;69200;53.612;-2.416;2024-01-07T10:12:15;7.33;;;2.60;;
79706;SDS011;69200;53.612;-2.416;2024-01-07T10:14:40;6.93;;;2.67;;
79706;SDS011;69200;53.612;-2.416;2024-01-07T10:17:15;8.63;;;3.10;;
79706;SDS011;69200;53.612;-2.416;2024-01-07T10:19:42;5.65;;;2.30;;
79706;SDS011;69200;53.612;-2.416;2024-01-07T10:22:08;7.05;;;2.45;;
79706;SDS011;69200;53.612;-2.416;2024-01-07T10:24:37;6.33;;;2.43;;
79706;SDS011;69200;53.612;-2.416;2024-01-07T10:27:04;6.70;;;2.72;;
79706;SDS011;69200;53.612;-2.416;2024-01-07T10:29:30;6.43;;;2.22;;
79706;SDS011;69200;53.612;-2.416;2024-01-07T10:32:00;9.85;;;2.88;;
79706;SDS011;69200;53.612;-2.416;2024-01-07T10:34:28;6.68;;;2.22;;
79706;SDS011;69200;53.612;-2.416;2024-01-07T10:36:54;8.00;;;2.42;;
79706;SDS011;69200;53.612;-2.416;2024-01-07T10:39:21;7.43;;;2.67;;
79706;SDS011;69200;53.612;-2.416;2024-01-07T10:41:46;8.23;;;3.10;;
79706;SDS011;69200;53.612;-2.416;2024-01-07T10:44:12;8.27;;;2.22;;
79706;SDS011;69200;53.612;-2.416;2024-01-07T10:46:38;5.78;;;2.55;;
79706;SDS011;69200;53.612;-2.416;2024-01-07T10:49:04;6.20;;;2.42;;
79706;SDS011;69200;53.612;-2.416;2024-01-07T10:51:33;5.15;;;2.13;;
79706;SDS011;69200;53.612;-2.416;2024-01-07T10:53:59;8.02;;;2.90;;
79706;SDS011;69200;53.612;-2.416;2024-01-07T10:56:25;7.23;;;2.47;;
79706;SDS011;69200;53.612;-2.416;2024-01-07T10:58:54;8.82;;;2.33;;
79706;SDS011;69200;53.612;-2.416;2024-01-07T11:01:19;7.20;;;2.65;;
79706;SDS011;69200;53.612;-2.416;2024-01-07T11:08:43;11.07;;;2.28;;
79706;SDS011;69200;53.612;-2.416;2024-01-07T11:11:18;8.88;;;2.97;;
79706;SDS011;69200;53.612;-2.416;2024-01-07T11:13:43;5.57;;;2.15;;
79706;SDS011;69200;53.612;-2.416;2024-01-07T11:16:09;8.45;;;3.05;;
79706;SDS011;69200;53.612;-2.416;2024-01-07T11:18:37;7.45;;;2.60;;
79706;SDS011;69200;53.612;-2.416;2024-01-07T11:21:03;5.82;;;1.92;;
79706;SDS011;69200;53.612;-2.416;2024-01-07T11:26:04;7.43;;;2.47;;
79706;SDS011;69200;53.612;-2.416;2024-01-07T11:28:42;10.52;;;3.00;;
79706;SDS011;69200;53.612;-2.416;2024-01-07T11:31:08;8.18;;;3.28;;
79706;SDS011;69200;53.612;-2.416;2024-01-07T11:33:34;7.38;;;2.78;;
79706;SDS011;69200;53.612;-2.416;2024-01-07T11:36:02;9.80;;;3.58;;
79706;SDS011;69200;53.612;-2.416;2024-01-07T11:38:27;11.23;;;3.25;;
79706;SDS011;69200;53.612;-2.416;2024-01-07T11:40:53;9.63;;;3.33;;
79706;SDS011;69200;53.612;-2.416;2024-01-07T11:43:18;7.72;;;3.53;;
79706;SDS011;69200;53.612;-2.416;2024-01-07T11:45:44;9.63;;;3.38;;
79706;SDS011;69200;53.612;-2.416;2024-01-07T11:48:09;9.13;;;2.85;;
79706;SDS011;69200;53.612;-2.416;2024-01-07T11:50:35;6.77;;;2.00;;
79706;SDS011;69200;53.612;-2.416;2024-01-07T11:53:00;9.68;;;2.67;;
79706;SDS011;69200;53.612;-2.416;2024-01-07T11:55:25;6.25;;;2.33;;
79706;SDS011;69200;53.612;-2.416;2024-01-07T11:57:51;6.70;;;2.20;;
79706;SDS011;69200;53.612;-2.416;2024-01-07T12:00:17;9.05;;;2.90;;
79706;SDS011;69200;53.612;-2.416;2024-01-07T12:02:42;7.35;;;2.78;;
79706;SDS011;69200;53.612;-2.416;2024-01-07T12:05:08;6.47;;;2.50;;
79706;SDS011;69200;53.612;-2.416;2024-01-07T12:07:33;7.03;;;2.80;;
79706;SDS011;69200;53.612;-2.416;2024-01-07T12:10:02;6.93;;;2.40;;
79706;SDS011;69200;53.612;-2.416;2024-01-07T12:12:27;7.00;;;2.13;;
79706;SDS011;69200;53.612;-2.416;2024-01-07T12:14:52;7.75;;;2.88;;
79706;SDS011;69200;53.612;-2.416;2024-01-07T12:17:18;9.77;;;3.38;;
79706;SDS011;69200;53.612;-2.416;2024-01-07T12:19:43;6.57;;;2.50;;
79706;SDS011;69200;53.612;-2.416;2024-01-07T12:22:08;7.32;;;2.42;;
79706;SDS011;69200;53.612;-2.416;2024-01-07T12:24:34;8.30;;;2.63;;
79706;SDS011;69200;53.612;-2.416;2024-01-07T12:27:06;7.15;;;3.13;;
79706;SDS011;69200;53.612;-2.416;2024-01-07T12:29:31;9.68;;;3.20;;
79706;SDS011;69200;53.612;-2.416;2024-01-07T12:31:56;8.93;;;2.50;;
79706;SDS011;69200;53.612;-2.416;2024-01-07T12:34:21;6.17;;;2.60;;
79706;SDS011;69200;53.612;-2.416;2024-01-07T12:36:48;8.82;;;2.67;;
79706;SDS011;69200;53.612;-2.416;2024-01-07T12:39:14;7.40;;;2.22;;
79706;SDS011;69200;53.612;-2.416;2024-01-07T12:41:39;9.23;;;3.07;;
79706;SDS011;69200;53.612;-2.416;2024-01-07T12:44:04;24.97;;;8.53;;
79706;SDS011;69200;53.612;-2.416;2024-01-07T12:46:29;18.87;;;6.87;;
79706;SDS011;69200;53.612;-2.416;2024-01-07T12:48:56;22.45;;;6.68;;
79706;SDS011;69200;53.612;-2.416;2024-01-07T12:51:21;14.23;;;4.80;;
79706;SDS011;69200;53.612;-2.416;2024-01-07T12:53:47;10.53;;;4.10;;
79706;SDS011;69200;53.612;-2.416;2024-01-07T12:56:12;9.70;;;3.73;;
79706;SDS011;69200;53.612;-2.416;2024-01-07T12:58:38;10.70;;;3.85;;
79706;SDS011;69200;53.612;-2.416;2024-01-07T13:01:03;9.43;;;3.53;;
79706;SDS011;69200;53.612;-2.416;2024-01-07T13:03:29;9.85;;;3.92;;
79706;SDS011;69200;53.612;-2.416;2024-01-07T13:05:55;14.73;;;4.03;;
79706;SDS011;69200;53.612;-2.416;2024-01-07T13:08:20;10.55;;;3.95;;
79706;SDS011;69200;53.612;-2.416;2024-01-07T13:10:50;10.13;;;3.38;;
79706;SDS011;69200;53.612;-2.416;2024-01-07T13:13:16;8.82;;;3.53;;
79706;SDS011;69200;53.612;-2.416;2024-01-07T13:15:42;13.88;;;4.25;;
79706;SDS011;69200;53.612;-2.416;2024-01-07T13:18:07;11.73;;;3.50;;
79706;SDS011;69200;53.612;-2.416;2024-01-07T13:20:33;10.37;;;3.90;;
79706;SDS011;69200;53.612;-2.416;2024-01-07T13:23:00;8.32;;;3.33;;
79706;SDS011;69200;53.612;-2.416;2024-01-07T13:25:25;10.73;;;3.22;;
79706;SDS011;69200;53.612;-2.416;2024-01-07T13:27:51;9.20;;;3.80;;
79706;SDS011;69200;53.612;-2.416;2024-01-07T13:30:16;7.00;;;3.10;;
79706;SDS011;69200;53.612;-2.416;2024-01-07T13:32:41;11.97;;;3.73;;
79706;SDS011;69200;53.612;-2.416;2024-01-07T13:35:07;7.63;;;2.80;;
79706;SDS011;69200;53.612;-2.416;2024-01-07T13:37:38;6.32;;;2.65;;
79706;SDS011;69200;53.612;-2.416;2024-01-07T13:40:07;5.68;;;1.77;;
79706;SDS011;69200;53.612;-2.416;2024-01-07T13:42:35;4.38;;;1.98;;
79706;SDS011;69200;53.612;-2.416;2024-01-07T13:45:00;5.43;;;2.30;;
79706;SDS011;69200;53.612;-2.416;2024-01-07T13:47:25;7.37;;;1.93;;
79706;SDS011;69200;53.612;-2.416;2024-01-07T13:49:51;6.93;;;2.13;;
79706;SDS011;69200;53.612;-2.416;2024-01-07T13:52:16;5.87;;;1.70;;
79706;SDS011;69200;53.612;-2.416;2024-01-07T13:54:41;6.60;;;2.33;;
79706;SDS011;69200;53.612;-2.416;2024-01-07T13:57:06;5.87;;;2.30;;
79706;SDS011;69200;53.612;-2.416;2024-01-07T13:59:32;11.05;;;3.95;;
79706;SDS011;69200;53.612;-2.416;2024-01-07T14:01:57;7.32;;;2.67;;
79706;SDS011;69200;53.612;-2.416;2024-01-07T14:04:23;10.13;;;3.40;;
79706;SDS011;69200;53.612;-2.416;2024-01-07T14:06:53;8.38;;;3.97;;
79706;SDS011;69200;53.612;-2.416;2024-01-07T14:09:18;7.32;;;3.00;;
79706;SDS011;69200;53.612;-2.416;2024-01-07T14:11:44;14.37;;;3.50;;
79706;SDS011;69200;53.612;-2.416;2024-01-07T14:14:09;10.23;;;3.57;;
79706;SDS011;69200;53.612;-2.416;2024-01-07T14:16:34;7.90;;;2.40;;
79706;SDS011;69200;53.612;-2.416;2024-01-07T14:18:59;11.52;;;2.92;;
79706;SDS011;69200;53.612;-2.416;2024-01-07T14:21:25;6.53;;;2.73;;
79706;SDS011;69200;53.612;-2.416;2024-01-07T14:23:51;8.75;;;3.03;;
79706;SDS011;69200;53.612;-2.416;2024-01-07T14:26:17;8.00;;;3.42;;
79706;SDS011;69200;53.612;-2.416;2024-01-07T14:28:44;5.75;;;2.10;;
79706;SDS011;69200;53.612;-2.416;2024-01-07T14:31:09;6.97;;;2.90;;
79706;SDS011;69200;53.612;-2.416;2024-01-07T14:33:35;4.63;;;1.80;;